sensor_id;sensor_type;location;lat;lon;timestamp;P1;durP1;ratioP1;P2;durP2;ratioP2
22417;SDS011;11376;50.932;4.442;2023-10-19T00:00:47;3.33;;;0.52;;
22417;SDS011;11376;50.932;4.442;2023-10-19T00:03:15;3.42;;;0.30;;
22417;SDS011;11376;50.932;4.442;2023-10-19T00:05:41;2.85;;;0.60;;
22417;SDS011;11376;50.932;4.442;2023-10-19T00:08:07;3.47;;;0.75;;
22417;SDS011;11376;50.932;4.442;2023-10-19T00:10:47;5.47;;;0.73;;
22417;SDS011;11376;50.932;4.442;2023-10-19T00:13:20;3.28;;;0.50;;
22417;SDS011;11376;50.932;4.442;2023-10-19T00:15:47;4.55;;;0.60;;
22417;SDS011;11376;50.932;4.442;2023-10-19T00:18:14;2.95;;;0.40;;
22417;SDS011;11376;50.932;4.442;2023-10-19T00:20:40;2.28;;;0.40;;
22417;SDS011;11376;50.932;4.442;2023-10-19T00:23:06;2.28;;;0.40;;
22417;SDS011;11376;50.932;4.442;2023-10-19T00:25:32;3.90;;;0.60;;
22417;SDS011;11376;50.932;4.442;2023-10-19T00:28:00;1.75;;;0.40;;
22417;SDS011;11376;50.932;4.442;2023-10-19T00:30:28;3.38;;;0.60;;
22417;SDS011;11376;50.932;4.442;2023-10-19T00:32:57;9.70;;;1.10;;
22417;SDS011;11376;50.932;4.442;2023-10-19T00:35:28;3.30;;;0.52;;
22417;SDS011;11376;50.932;4.442;2023-10-19T00:38:00;2.53;;;0.73;;
22417;SDS011;11376;50.932;4.442;2023-10-19T00:40:51;2.40;;;0.30;;
22417;SDS011;11376;50.932;4.442;2023-10-19T00:43:30;5.50;;;0.65;;
22417;SDS011;11376;50.932;4.442;2023-10-19T00:46:07;4.30;;;0.50;;
22417;SDS011;11376;50.932;4.442;2023-10-19T00:48:47;1.95;;;0.52;;
22417;SDS011;11376;50.932;4.442;2023-10-19T00:51:19;3.92;;;0.90;;
22417;SDS011;11376;50.932;4.442;2023-10-19T00:54:00;6.07;;;0.77;;
22417;SDS011;11376;50.932;4.442;2023-10-19T00:56:33;4.85;;;0.75;;
22417;SDS011;11376;50.932;4.442;2023-10-19T00:59:01;4.30;;;0.82;;
22417;SDS011;11376;50.932;4.442;2023-10-19T01:01:38;5.18;;;0.80;;
22417;SDS011;11376;50.932;4.442;2023-10-19T01:04:09;3.35;;;1.25;;
22417;SDS011;11376;50.932;4.442;2023-10-19T01:06:43;5.40;;;1.25;;
22417;SDS011;11376;50.932;4.442;2023-10-19T01:09:12;5.57;;;1.20;;
22417;SDS011;11376;50.932;4.442;2023-10-19T01:11:40;4.63;;;1.25;;
22417;SDS011;11376;50.932;4.442;2023-10-19T01:14:22;4.47;;;1.27;;
22417;SDS011;11376;50.932;4.442;2023-10-19T01:16:52;4.38;;;1.30;;
22417;SDS011;11376;50.932;4.442;2023-10-19T01:19:24;5.15;;;1.60;;
22417;SDS011;11376;50.932;4.442;2023-10-19T01:21:52;6.00;;;1.60;;
22417;SDS011;11376;50.932;4.442;2023-10-19T01:24:23;5.80;;;1.38;;
22417;SDS011;11376;50.932;4.442;2023-10-19T01:27:05;4.15;;;0.95;;
22417;SDS011;11376;50.932;4.442;2023-10-19T01:29:34;5.95;;;1.42;;
22417;SDS011;11376;50.932;4.442;2023-10-19T01:32:02;6.95;;;1.98;;
22417;SDS011;11376;50.932;4.442;2023-10-19T01:34:33;6.13;;;1.73;;
22417;SDS011;11376;50.932;4.442;2023-10-19T01:37:00;7.10;;;1.85;;
22417;SDS011;11376;50.932;4.442;2023-10-19T01:39:30;6.03;;;1.83;;
22417;SDS011;11376;50.932;4.442;2023-10-19T01:41:57;10.18;;;2.33;;
22417;SDS011;11376;50.932;4.442;2023-10-19T01:44:23;8.65;;;2.25;;
22417;SDS011;11376;50.932;4.442;2023-10-19T01:46:49;5.20;;;1.75;;
22417;SDS011;11376;50.932;4.442;2023-10-19T01:49:15;5.25;;;1.48;;
22417;SDS011;11376;50.932;4.442;2023-10-19T01:52:01;7.65;;;1.60;;
22417;SDS011;11376;50.932;4.442;2023-10-19T01:54:28;6.28;;;1.75;;
22417;SDS011;11376;50.932;4.442;2023-10-19T01:56:54;4.10;;;0.90;;
22417;SDS011;11376;50.932;4.442;2023-10-19T01:59:23;7.72;;;1.52;;
22417;SDS011;11376;50.932;4.442;2023-10-19T02:01:52;7.47;;;1.48;;
22417;SDS011;11376;50.932;4.442;2023-10-19T02:04:22;5.57;;;1.48;;
22417;SDS011;11376;50.932;4.442;2023-10-19T02:06:48;4.82;;;1.40;;
22417;SDS011;11376;50.932;4.442;2023-10-19T02:09:17;8.18;;;1.17;;
22417;SDS011;11376;50.932;4.442;2023-10-19T02:11:46;5.90;;;1.05;;
22417;SDS011;11376;50.932;4.442;2023-10-19T02:14:14;6.63;;;1.20;;
22417;SDS011;11376;50.932;4.442;2023-10-19T02:16:41;3.75;;;1.20;;
22417;SDS011;11376;50.932;4.442;2023-10-19T02:19:17;3.45;;;1.00;;
22417;SDS011;11376;50.932;4.442;2023-10-19T02:21:45;10.75;;;1.25;;
22417;SDS011;11376;50.932;4.442;2023-10-19T02:24:13;4.05;;;1.15;;
22417;SDS011;11376;50.932;4.442;2023-10-19T02:26:39;7.85;;;1.13;;
22417;SDS011;11376;50.932;4.442;2023-10-19T02:29:09;5.45;;;0.82;;
22417;SDS011;11376;50.932;4.442;2023-10-19T02:31:35;7.82;;;1.05;;
22417;SDS011;11376;50.932;4.442;2023-10-19T02:34:08;6.30;;;1.05;;
22417;SDS011;11376;50.932;4.442;2023-10-19T02:36:35;11.98;;;1.40;;
22417;SDS011;11376;50.932;4.442;2023-10-19T02:39:03;5.50;;;0.93;;
22417;SDS011;11376;50.932;4.442;2023-10-19T02:41:34;7.10;;;1.00;;
22417;SDS011;11376;50.932;4.442;2023-10-19T02:44:04;10.20;;;1.35;;
22417;SDS011;11376;50.932;4.442;2023-10-19T02:46:42;7.97;;;1.00;;
22417;SDS011;11376;50.932;4.442;2023-10-19T02:49:09;8.27;;;1.40;;
22417;SDS011;11376;50.932;4.442;2023-10-19T02:51:40;8.63;;;0.90;;
22417;SDS011;11376;50.932;4.442;2023-10-19T02:54:09;8.55;;;1.30;;
22417;SDS011;11376;50.932;4.442;2023-10-19T02:56:44;8.80;;;1.70;;
22417;SDS011;11376;50.932;4.442;2023-10-19T02:59:14;9.15;;;1.70;;
22417;SDS011;11376;50.932;4.442;2023-10-19T03:01:41;9.55;;;1.25;;
22417;SDS011;11376;50.932;4.442;2023-10-19T03:04:10;9.07;;;1.30;;
22417;SDS011;11376;50.932;4.442;2023-10-19T03:06:40;8.98;;;1.48;;
22417;SDS011;11376;50.932;4.442;2023-10-19T03:09:07;8.77;;;1.27;;
22417;SDS011;11376;50.932;4.442;2023-10-19T03:11:55;9.35;;;1.65;;
22417;SDS011;11376;50.932;4.442;2023-10-19T03:14:38;10.98;;;1.92;;
22417;SDS011;11376;50.932;4.442;2023-10-19T03:17:04;12.48;;;2.08;;
22417;SDS011;11376;50.932;4.442;2023-10-19T03:19:33;9.77;;;1.65;;
22417;SDS011;11376;50.932;4.442;2023-10-19T03:21:59;7.20;;;1.58;;
22417;SDS011;11376;50.932;4.442;2023-10-19T03:24:25;9.63;;;1.42;;
22417;SDS011;11376;50.932;4.442;2023-10-19T03:27:01;7.43;;;1.27;;
22417;SDS011;11376;50.932;4.442;2023-10-19T03:29:49;11.20;;;1.52;;
22417;SDS011;11376;50.932;4.442;2023-10-19T03:32:20;6.38;;;1.80;;
22417;SDS011;11376;50.932;4.442;2023-10-19T03:34:54;9.75;;;1.88;;
22417;SDS011;11376;50.932;4.442;2023-10-19T03:37:25;11.18;;;1.42;;
22417;SDS011;11376;50.932;4.442;2023-10-19T03:39:54;6.28;;;0.98;;
22417;SDS011;11376;50.932;4.442;2023-10-19T03:42:23;13.63;;;1.80;;
22417;SDS011;11376;50.932;4.442;2023-10-19T03:44:57;11.68;;;1.23;;
22417;SDS011;11376;50.932;4.442;2023-10-19T03:47:24;9.57;;;1.75;;
22417;SDS011;11376;50.932;4.442;2023-10-19T03:50:02;7.40;;;1.55;;
22417;SDS011;11376;50.932;4.442;2023-10-19T03:52:32;12.05;;;1.77;;
22417;SDS011;11376;50.932;4.442;2023-10-19T03:55:02;8.70;;;1.65;;
22417;SDS011;11376;50.932;4.442;2023-10-19T03:57:36;8.85;;;1.35;;
22417;SDS011;11376;50.932;4.442;2023-10-19T04:00:06;12.52;;;1.55;;
22417;SDS011;11376;50.932;4.442;2023-10-19T04:02:36;11.73;;;1.98;;
22417;SDS011;11376;50.932;4.442;2023-10-19T04:05:03;12.10;;;2.00;;
22417;SDS011;11376;50.932;4.442;2023-10-19T04:07:29;12.65;;;2.00;;
22417;SDS011;11376;50.932;4.442;2023-10-19T04:09:58;5.22;;;1.13;;
22417;SDS011;11376;50.932;4.442;2023-10-19T04:12:42;14.20;;;1.50;;
22417;SDS011;11376;50.932;4.442;2023-10-19T04:15:09;9.15;;;1.25;;
22417;SDS011;11376;50.932;4.442;2023-10-19T04:17:40;9.77;;;1.60;;
22417;SDS011;11376;50.932;4.442;2023-10-19T04:20:07;9.73;;;1.75;;
22417;SDS011;11376;50.932;4.442;2023-10-19T04:22:51;7.55;;;1.30;;
22417;SDS011;11376;50.932;4.442;2023-10-19T04:25:18;6.90;;;1.17;;
22417;SDS011;11376;50.932;4.442;2023-10-19T04:27:45;9.40;;;1.48;;
22417;SDS011;11376;50.932;4.442;2023-10-19T04:30:12;8.80;;;1.58;;
22417;SDS011;11376;50.932;4.442;2023-10-19T04:32:43;8.23;;;1.58;;
22417;SDS011;11376;50.932;4.442;2023-10-19T04:35:10;10.02;;;1.73;;
22417;SDS011;11376;50.932;4.442;2023-10-19T04:37:38;10.25;;;1.52;;
22417;SDS011;11376;50.932;4.442;2023-10-19T04:40:07;6.75;;;1.50;;
22417;SDS011;11376;50.932;4.442;2023-10-19T04:42:37;10.02;;;1.80;;
22417;SDS011;11376;50.932;4.442;2023-10-19T04:45:03;9.77;;;1.58;;
22417;SDS011;11376;50.932;4.442;2023-10-19T04:47:30;7.88;;;1.27;;
22417;SDS011;11376;50.932;4.442;2023-10-19T04:49:58;11.20;;;1.88;;
22417;SDS011;11376;50.932;4.442;2023-10-19T04:52:23;8.50;;;1.35;;
22417;SDS011;11376;50.932;4.442;2023-10-19T04:54:49;12.45;;;2.22;;
22417;SDS011;11376;50.932;4.442;2023-10-19T04:57:14;12.60;;;1.60;;
22417;SDS011;11376;50.932;4.442;2023-10-19T04:59:40;9.25;;;1.55;;
22417;SDS011;11376;50.932;4.442;2023-10-19T05:02:10;10.93;;;1.70;;
22417;SDS011;11376;50.932;4.442;2023-10-19T05:04:35;8.60;;;1.67;;
22417;SDS011;11376;50.932;4.442;2023-10-19T05:07:01;6.28;;;1.20;;
22417;SDS011;11376;50.932;4.442;2023-10-19T05:09:28;10.68;;;1.35;;
22417;SDS011;11376;50.932;4.442;2023-10-19T05:11:55;10.13;;;1.70;;
22417;SDS011;11376;50.932;4.442;2023-10-19T05:14:22;10.32;;;1.52;;
22417;SDS011;11376;50.932;4.442;2023-10-19T05:16:47;9.00;;;1.95;;
22417;SDS011;11376;50.932;4.442;2023-10-19T05:19:13;6.97;;;1.20;;
22417;SDS011;11376;50.932;4.442;2023-10-19T05:21:39;10.48;;;1.50;;
22417;SDS011;11376;50.932;4.442;2023-10-19T05:24:05;10.07;;;1.40;;
22417;SDS011;11376;50.932;4.442;2023-10-19T05:26:33;14.52;;;1.40;;
22417;SDS011;11376;50.932;4.442;2023-10-19T05:28:58;11.98;;;1.60;;
22417;SDS011;11376;50.932;4.442;2023-10-19T05:31:24;6.78;;;1.38;;
22417;SDS011;11376;50.932;4.442;2023-10-19T05:33:50;11.27;;;1.48;;
22417;SDS011;11376;50.932;4.442;2023-10-19T05:36:16;14.05;;;1.60;;
22417;SDS011;11376;50.932;4.442;2023-10-19T05:38:42;11.20;;;1.88;;
22417;SDS011;11376;50.932;4.442;2023-10-19T05:41:08;10.27;;;1.35;;
22417;SDS011;11376;50.932;4.442;2023-10-19T05:43:35;12.63;;;1.60;;
22417;SDS011;11376;50.932;4.442;2023-10-19T05:46:01;10.25;;;1.52;;
22417;SDS011;11376;50.932;4.442;2023-10-19T05:48:27;9.30;;;1.30;;
22417;SDS011;11376;50.932;4.442;2023-10-19T05:50:53;15.35;;;2.00;;
22417;SDS011;11376;50.932;4.442;2023-10-19T05:53:19;13.25;;;2.28;;
22417;SDS011;11376;50.932;4.442;2023-10-19T05:55:47;14.77;;;1.60;;
22417;SDS011;11376;50.932;4.442;2023-10-19T05:58:15;8.70;;;1.20;;
22417;SDS011;11376;50.932;4.442;2023-10-19T06:00:41;7.05;;;1.50;;
22417;SDS011;11376;50.932;4.442;2023-10-19T06:03:07;8.45;;;1.58;;
22417;SDS011;11376;50.932;4.442;2023-10-19T06:05:33;9.05;;;1.42;;
22417;SDS011;11376;50.932;4.442;2023-10-19T06:07:59;11.57;;;1.33;;
22417;SDS011;11376;50.932;4.442;2023-10-19T06:10:25;13.57;;;1.80;;
22417;SDS011;11376;50.932;4.442;2023-10-19T06:12:52;12.23;;;1.70;;
22417;SDS011;11376;50.932;4.442;2023-10-19T06:15:18;14.93;;;1.40;;
22417;SDS011;11376;50.932;4.442;2023-10-19T06:17:46;6.10;;;1.02;;
22417;SDS011;11376;50.932;4.442;2023-10-19T06:20:13;9.20;;;1.50;;
22417;SDS011;11376;50.932;4.442;2023-10-19T06:22:49;8.80;;;1.30;;
22417;SDS011;11376;50.932;4.442;2023-10-19T06:25:16;10.77;;;1.65;;
22417;SDS011;11376;50.932;4.442;2023-10-19T06:27:48;11.13;;;1.73;;
22417;SDS011;11376;50.932;4.442;2023-10-19T06:30:15;10.75;;;1.60;;
22417;SDS011;11376;50.932;4.442;2023-10-19T06:32:50;7.95;;;1.45;;
22417;SDS011;11376;50.932;4.442;2023-10-19T06:35:17;13.48;;;1.90;;
22417;SDS011;11376;50.932;4.442;2023-10-19T06:37:43;10.93;;;1.42;;
22417;SDS011;11376;50.932;4.442;2023-10-19T06:40:09;9.73;;;1.65;;
22417;SDS011;11376;50.932;4.442;2023-10-19T06:42:45;13.38;;;1.85;;
22417;SDS011;11376;50.932;4.442;2023-10-19T06:45:14;11.02;;;1.65;;
22417;SDS011;11376;50.932;4.442;2023-10-19T06:47:45;8.10;;;1.65;;
22417;SDS011;11376;50.932;4.442;2023-10-19T06:50:12;8.25;;;1.30;;
22417;SDS011;11376;50.932;4.442;2023-10-19T06:52:40;10.93;;;1.73;;
22417;SDS011;11376;50.932;4.442;2023-10-19T06:55:08;11.25;;;1.85;;
22417;SDS011;11376;50.932;4.442;2023-10-19T06:57:39;14.60;;;1.98;;
22417;SDS011;11376;50.932;4.442;2023-10-19T07:00:08;13.25;;;1.98;;
22417;SDS011;11376;50.932;4.442;2023-10-19T07:02:39;10.90;;;1.70;;
22417;SDS011;11376;50.932;4.442;2023-10-19T07:05:06;9.05;;;1.70;;
22417;SDS011;11376;50.932;4.442;2023-10-19T07:07:35;16.30;;;2.40;;
22417;SDS011;11376;50.932;4.442;2023-10-19T07:10:01;20.20;;;2.97;;
22417;SDS011;11376;50.932;4.442;2023-10-19T07:12:28;13.88;;;2.30;;
22417;SDS011;11376;50.932;4.442;2023-10-19T07:14:54;14.43;;;2.17;;
22417;SDS011;11376;50.932;4.442;2023-10-19T07:17:20;12.43;;;1.80;;
22417;SDS011;11376;50.932;4.442;2023-10-19T07:19:45;10.30;;;1.52;;
22417;SDS011;11376;50.932;4.442;2023-10-19T07:22:13;13.30;;;1.83;;
22417;SDS011;11376;50.932;4.442;2023-10-19T07:24:40;18.23;;;2.05;;
22417;SDS011;11376;50.932;4.442;2023-10-19T07:27:06;9.25;;;1.50;;
22417;SDS011;11376;50.932;4.442;2023-10-19T07:29:33;14.82;;;1.80;;
22417;SDS011;11376;50.932;4.442;2023-10-19T07:32:01;9.20;;;1.58;;
22417;SDS011;11376;50.932;4.442;2023-10-19T07:34:30;10.48;;;2.00;;
22417;SDS011;11376;50.932;4.442;2023-10-19T07:36:58;11.93;;;2.10;;
22417;SDS011;11376;50.932;4.442;2023-10-19T07:39:24;11.98;;;1.80;;
22417;SDS011;11376;50.932;4.442;2023-10-19T07:41:54;11.43;;;1.63;;
22417;SDS011;11376;50.932;4.442;2023-10-19T07:44:20;10.35;;;2.08;;
22417;SDS011;11376;50.932;4.442;2023-10-19T07:46:46;7.35;;;1.50;;
22417;SDS011;11376;50.932;4.442;2023-10-19T07:49:12;13.05;;;1.98;;
22417;SDS011;11376;50.932;4.442;2023-10-19T07:51:47;14.15;;;1.88;;
22417;SDS011;11376;50.932;4.442;2023-10-19T07:54:13;11.30;;;1.90;;
22417;SDS011;11376;50.932;4.442;2023-10-19T07:56:39;13.93;;;2.22;;
22417;SDS011;11376;50.932;4.442;2023-10-19T07:59:05;15.25;;;2.05;;
22417;SDS011;11376;50.932;4.442;2023-10-19T08:01:32;16.52;;;2.15;;
22417;SDS011;11376;50.932;4.442;2023-10-19T08:03:57;10.05;;;1.75;;
22417;SDS011;11376;50.932;4.442;2023-10-19T08:06:23;15.77;;;2.17;;
22417;SDS011;11376;50.932;4.442;2023-10-19T08:08:49;10.18;;;1.90;;
22417;SDS011;11376;50.932;4.442;2023-10-19T08:11:15;13.90;;;2.58;;
22417;SDS011;11376;50.932;4.442;2023-10-19T08:13:41;10.98;;;2.05;;
22417;SDS011;11376;50.932;4.442;2023-10-19T08:16:07;13.38;;;2.20;;
22417;SDS011;11376;50.932;4.442;2023-10-19T08:18:33;11.90;;;1.85;;
22417;SDS011;11376;50.932;4.442;2023-10-19T08:21:02;16.35;;;1.92;;
22417;SDS011;11376;50.932;4.442;2023-10-19T08:23:28;14.18;;;2.10;;
22417;SDS011;11376;50.932;4.442;2023-10-19T08:25:56;10.40;;;2.35;;
22417;SDS011;11376;50.932;4.442;2023-10-19T08:28:22;14.35;;;2.30;;
22417;SDS011;11376;50.932;4.442;2023-10-19T08:30:48;17.17;;;2.45;;
22417;SDS011;11376;50.932;4.442;2023-10-19T08:33:23;15.20;;;2.15;;
22417;SDS011;11376;50.932;4.442;2023-10-19T08:35:51;14.23;;;1.95;;
22417;SDS011;11376;50.932;4.442;2023-10-19T08:38:18;10.20;;;1.83;;
22417;SDS011;11376;50.932;4.442;2023-10-19T08:40:44;16.23;;;2.35;;
22417;SDS011;11376;50.932;4.442;2023-10-19T08:43:11;15.65;;;2.20;;
22417;SDS011;11376;50.932;4.442;2023-10-19T08:45:38;12.93;;;2.28;;
22417;SDS011;11376;50.932;4.442;2023-10-19T08:48:04;12.68;;;2.55;;
22417;SDS011;11376;50.932;4.442;2023-10-19T08:50:33;13.75;;;2.15;;
22417;SDS011;11376;50.932;4.442;2023-10-19T08:53:01;19.77;;;2.63;;
22417;SDS011;11376;50.932;4.442;2023-10-19T08:55:30;21.35;;;2.63;;
22417;SDS011;11376;50.932;4.442;2023-10-19T08:57:57;18.05;;;2.90;;
22417;SDS011;11376;50.932;4.442;2023-10-19T09:00:25;17.88;;;2.42;;
22417;SDS011;11376;50.932;4.442;2023-10-19T09:02:55;9.27;;;2.22;;
22417;SDS011;11376;50.932;4.442;2023-10-19T09:05:24;16.52;;;2.63;;
22417;SDS011;11376;50.932;4.442;2023-10-19T09:07:51;17.48;;;2.58;;
22417;SDS011;11376;50.932;4.442;2023-10-19T09:15:33;11.77;;;1.90;;
22417;SDS011;11376;50.932;4.442;2023-10-19T09:18:18;20.38;;;2.60;;
22417;SDS011;11376;50.932;4.442;2023-10-19T09:20:49;18.67;;;2.70;;
22417;SDS011;11376;50.932;4.442;2023-10-19T09:23:21;14.85;;;2.58;;
22417;SDS011;11376;50.932;4.442;2023-10-19T09:25:48;11.90;;;2.20;;
22417;SDS011;11376;50.932;4.442;2023-10-19T09:28:14;16.50;;;2.58;;
22417;SDS011;11376;50.932;4.442;2023-10-19T09:30:41;15.15;;;2.17;;
22417;SDS011;11376;50.932;4.442;2023-10-19T09:33:09;10.80;;;2.17;;
22417;SDS011;11376;50.932;4.442;2023-10-19T09:35:34;14.10;;;2.38;;
22417;SDS011;11376;50.932;4.442;2023-10-19T09:38:03;12.23;;;2.17;;
22417;SDS011;11376;50.932;4.442;2023-10-19T09:40:32;13.48;;;2.40;;
22417;SDS011;11376;50.932;4.442;2023-10-19T09:42:58;12.93;;;2.20;;
22417;SDS011;11376;50.932;4.442;2023-10-19T09:45:31;10.90;;;1.90;;
22417;SDS011;11376;50.932;4.442;2023-10-19T09:48:03;16.27;;;2.15;;
22417;SDS011;11376;50.932;4.442;2023-10-19T09:50:32;10.48;;;2.05;;
22417;SDS011;11376;50.932;4.442;2023-10-19T09:52:58;10.52;;;2.05;;
22417;SDS011;11376;50.932;4.442;2023-10-19T09:58:02;11.32;;;2.10;;
22417;SDS011;11376;50.932;4.442;2023-10-19T10:00:29;13.52;;;2.60;;
22417;SDS011;11376;50.932;4.442;2023-10-19T10:02:59;14.07;;;2.25;;
22417;SDS011;11376;50.932;4.442;2023-10-19T10:10:43;14.00;;;1.83;;
22417;SDS011;11376;50.932;4.442;2023-10-19T10:13:43;13.32;;;2.10;;
22417;SDS011;11376;50.932;4.442;2023-10-19T10:16:02;15.70;;;2.13;;
22417;SDS011;11376;50.932;4.442;2023-10-19T10:18:31;11.75;;;1.90;;
22417;SDS011;11376;50.932;4.442;2023-10-19T10:21:06;14.88;;;2.08;;
22417;SDS011;11376;50.932;4.442;2023-10-19T10:23:54;11.93;;;2.05;;
22417;SDS011;11376;50.932;4.442;2023-10-19T10:26:25;12.32;;;2.63;;
22417;SDS011;11376;50.932;4.442;2023-10-19T10:29:11;13.68;;;2.10;;
22417;SDS011;11376;50.932;4.442;2023-10-19T10:31:48;14.38;;;2.22;;
22417;SDS011;11376;50.932;4.442;2023-10-19T10:39:27;13.77;;;2.30;;
22417;SDS011;11376;50.932;4.442;2023-10-19T10:41:55;8.30;;;2.00;;
22417;SDS011;11376;50.932;4.442;2023-10-19T10:44:35;13.43;;;2.30;;
22417;SDS011;11376;50.932;4.442;2023-10-19T10:47:03;13.25;;;2.30;;
22417;SDS011;11376;50.932;4.442;2023-10-19T10:49:33;10.55;;;2.03;;
22417;SDS011;11376;50.932;4.442;2023-10-19T10:52:00;11.55;;;2.40;;
22417;SDS011;11376;50.932;4.442;2023-10-19T10:54:26;11.32;;;2.20;;
22417;SDS011;11376;50.932;4.442;2023-10-19T10:56:51;9.27;;;1.88;;
22417;SDS011;11376;50.932;4.442;2023-10-19T10:59:17;14.18;;;2.55;;
22417;SDS011;11376;50.932;4.442;2023-10-19T11:01:43;14.07;;;2.22;;
22417;SDS011;11376;50.932;4.442;2023-10-19T11:04:09;13.63;;;2.10;;
22417;SDS011;11376;50.932;4.442;2023-10-19T11:06:48;9.15;;;1.65;;
22417;SDS011;11376;50.932;4.442;2023-10-19T11:09:15;12.20;;;2.13;;
22417;SDS011;11376;50.932;4.442;2023-10-19T11:11:44;16.88;;;2.40;;
22417;SDS011;11376;50.932;4.442;2023-10-19T11:14:11;13.25;;;2.17;;
22417;SDS011;11376;50.932;4.442;2023-10-19T11:16:38;13.90;;;1.95;;
22417;SDS011;11376;50.932;4.442;2023-10-19T11:19:08;14.13;;;2.45;;
22417;SDS011;11376;50.932;4.442;2023-10-19T11:21:35;13.75;;;2.10;;
22417;SDS011;11376;50.932;4.442;2023-10-19T11:24:01;18.38;;;2.78;;
22417;SDS011;11376;50.932;4.442;2023-10-19T11:26:27;16.20;;;2.35;;
22417;SDS011;11376;50.932;4.442;2023-10-19T11:28:56;14.40;;;2.15;;
22417;SDS011;11376;50.932;4.442;2023-10-19T11:31:23;9.00;;;2.10;;
22417;SDS011;11376;50.932;4.442;2023-10-19T11:33:50;17.70;;;2.40;;
22417;SDS011;11376;50.932;4.442;2023-10-19T11:36:17;11.88;;;2.28;;
22417;SDS011;11376;50.932;4.442;2023-10-19T11:38:44;17.65;;;2.50;;
22417;SDS011;11376;50.932;4.442;2023-10-19T11:41:14;12.32;;;2.17;;
22417;SDS011;11376;50.932;4.442;2023-10-19T11:43:41;14.93;;;2.30;;
22417;SDS011;11376;50.932;4.442;2023-10-19T11:46:07;12.50;;;2.33;;
22417;SDS011;11376;50.932;4.442;2023-10-19T11:48:35;11.45;;;2.10;;
22417;SDS011;11376;50.932;4.442;2023-10-19T11:51:04;9.25;;;2.00;;
22417;SDS011;11376;50.932;4.442;2023-10-19T11:53:34;11.82;;;2.10;;
22417;SDS011;11376;50.932;4.442;2023-10-19T11:56:02;11.77;;;1.90;;
22417;SDS011;11376;50.932;4.442;2023-10-19T11:58:32;12.55;;;1.65;;
22417;SDS011;11376;50.932;4.442;2023-10-19T12:00:59;12.68;;;2.20;;
22417;SDS011;11376;50.932;4.442;2023-10-19T12:03:26;11.55;;;2.25;;
22417;SDS011;11376;50.932;4.442;2023-10-19T12:05:52;12.35;;;2.30;;
22417;SDS011;11376;50.932;4.442;2023-10-19T12:08:21;11.93;;;1.92;;
22417;SDS011;11376;50.932;4.442;2023-10-19T12:10:47;10.77;;;1.98;;
22417;SDS011;11376;50.932;4.442;2023-10-19T12:13:13;9.80;;;1.83;;
22417;SDS011;11376;50.932;4.442;2023-10-19T12:15:38;10.52;;;1.80;;
22417;SDS011;11376;50.932;4.442;2023-10-19T12:18:04;11.80;;;2.10;;
22417;SDS011;11376;50.932;4.442;2023-10-19T12:20:32;10.60;;;1.70;;
22417;SDS011;11376;50.932;4.442;2023-10-19T12:23:00;11.27;;;1.70;;
22417;SDS011;11376;50.932;4.442;2023-10-19T12:25:26;12.02;;;2.08;;
22417;SDS011;11376;50.932;4.442;2023-10-19T12:27:55;9.63;;;1.58;;
22417;SDS011;11376;50.932;4.442;2023-10-19T12:30:22;10.93;;;2.22;;
22417;SDS011;11376;50.932;4.442;2023-10-19T12:32:51;9.30;;;1.60;;
22417;SDS011;11376;50.932;4.442;2023-10-19T12:35:17;7.47;;;1.63;;
22417;SDS011;11376;50.932;4.442;2023-10-19T12:37:49;7.72;;;1.60;;
22417;SDS011;11376;50.932;4.442;2023-10-19T12:40:18;11.70;;;1.80;;
22417;SDS011;11376;50.932;4.442;2023-10-19T12:42:54;9.48;;;1.90;;
22417;SDS011;11376;50.932;4.442;2023-10-19T12:45:24;6.07;;;1.40;;
22417;SDS011;11376;50.932;4.442;2023-10-19T12:47:50;10.18;;;1.27;;
22417;SDS011;11376;50.932;4.442;2023-10-19T12:50:19;6.57;;;1.10;;
22417;SDS011;11376;50.932;4.442;2023-10-19T12:52:49;9.48;;;1.40;;
22417;SDS011;11376;50.932;4.442;2023-10-19T12:55:15;4.95;;;1.20;;
22417;SDS011;11376;50.932;4.442;2023-10-19T12:57:42;5.05;;;1.15;;
22417;SDS011;11376;50.932;4.442;2023-10-19T13:00:07;4.97;;;1.15;;
22417;SDS011;11376;50.932;4.442;2023-10-19T13:02:54;5.20;;;0.93;;
22417;SDS011;11376;50.932;4.442;2023-10-19T13:05:26;2.88;;;0.70;;
22417;SDS011;11376;50.932;4.442;2023-10-19T13:07:53;2.78;;;0.70;;
22417;SDS011;11376;50.932;4.442;2023-10-19T13:10:23;2.13;;;0.77;;
22417;SDS011;11376;50.932;4.442;2023-10-19T13:13:01;3.90;;;0.70;;
22417;SDS011;11376;50.932;4.442;2023-10-19T13:15:29;5.68;;;0.80;;
22417;SDS011;11376;50.932;4.442;2023-10-19T13:17:56;2.88;;;0.73;;
22417;SDS011;11376;50.932;4.442;2023-10-19T13:20:24;5.10;;;0.90;;
22417;SDS011;11376;50.932;4.442;2023-10-19T13:22:50;4.47;;;0.90;;
22417;SDS011;11376;50.932;4.442;2023-10-19T13:25:17;4.43;;;0.80;;
22417;SDS011;11376;50.932;4.442;2023-10-19T13:27:43;3.40;;;0.80;;
22417;SDS011;11376;50.932;4.442;2023-10-19T13:30:09;2.83;;;0.60;;
22417;SDS011;11376;50.932;4.442;2023-10-19T13:32:36;3.28;;;0.70;;
22417;SDS011;11376;50.932;4.442;2023-10-19T13:35:03;1.95;;;0.47;;
22417;SDS011;11376;50.932;4.442;2023-10-19T13:37:29;2.25;;;0.50;;
22417;SDS011;11376;50.932;4.442;2023-10-19T13:39:54;4.57;;;0.60;;
22417;SDS011;11376;50.932;4.442;2023-10-19T13:42:21;3.35;;;0.70;;
22417;SDS011;11376;50.932;4.442;2023-10-19T13:44:49;2.80;;;0.70;;
22417;SDS011;11376;50.932;4.442;2023-10-19T13:47:15;5.30;;;0.80;;
22417;SDS011;11376;50.932;4.442;2023-10-19T13:49:41;3.35;;;0.60;;
22417;SDS011;11376;50.932;4.442;2023-10-19T13:52:07;2.17;;;0.70;;
22417;SDS011;11376;50.932;4.442;2023-10-19T13:54:35;2.33;;;0.60;;
22417;SDS011;11376;50.932;4.442;2023-10-19T13:57:02;2.28;;;0.70;;
22417;SDS011;11376;50.932;4.442;2023-10-19T13:59:28;2.28;;;0.47;;
22417;SDS011;11376;50.932;4.442;2023-10-19T14:01:54;2.03;;;0.60;;
22417;SDS011;11376;50.932;4.442;2023-10-19T14:04:20;2.80;;;0.60;;
22417;SDS011;11376;50.932;4.442;2023-10-19T14:06:46;2.58;;;0.80;;
22417;SDS011;11376;50.932;4.442;2023-10-19T14:09:14;4.07;;;0.70;;
22417;SDS011;11376;50.932;4.442;2023-10-19T14:11:40;2.67;;;0.80;;
22417;SDS011;11376;50.932;4.442;2023-10-19T14:14:06;5.90;;;1.02;;
22417;SDS011;11376;50.932;4.442;2023-10-19T14:16:32;2.78;;;0.60;;
22417;SDS011;11376;50.932;4.442;2023-10-19T14:18:59;2.08;;;0.57;;
22417;SDS011;11376;50.932;4.442;2023-10-19T14:21:24;2.45;;;0.45;;
22417;SDS011;11376;50.932;4.442;2023-10-19T14:23:53;1.77;;;0.60;;
22417;SDS011;11376;50.932;4.442;2023-10-19T14:26:19;3.35;;;0.60;;
22417;SDS011;11376;50.932;4.442;2023-10-19T14:28:44;2.28;;;0.57;;
22417;SDS011;11376;50.932;4.442;2023-10-19T14:31:10;3.50;;;0.60;;
22417;SDS011;11376;50.932;4.442;2023-10-19T14:33:37;5.40;;;0.90;;
22417;SDS011;11376;50.932;4.442;2023-10-19T14:36:05;2.78;;;0.70;;
22417;SDS011;11376;50.932;4.442;2023-10-19T14:38:32;2.50;;;0.70;;
22417;SDS011;11376;50.932;4.442;2023-10-19T14:40:58;1.50;;;0.40;;
22417;SDS011;11376;50.932;4.442;2023-10-19T14:43:24;2.35;;;0.70;;
22417;SDS011;11376;50.932;4.442;2023-10-19T14:45:54;2.17;;;0.50;;
22417;SDS011;11376;50.932;4.442;2023-10-19T14:48:21;3.83;;;0.75;;
22417;SDS011;11376;50.932;4.442;2023-10-19T14:50:48;3.15;;;0.60;;
22417;SDS011;11376;50.932;4.442;2023-10-19T14:53:16;4.80;;;0.90;;
22417;SDS011;11376;50.932;4.442;2023-10-19T14:55:46;1.70;;;0.60;;
22417;SDS011;11376;50.932;4.442;2023-10-19T14:58:11;2.00;;;0.60;;
22417;SDS011;11376;50.932;4.442;2023-10-19T15:00:37;3.00;;;0.60;;
22417;SDS011;11376;50.932;4.442;2023-10-19T15:03:07;2.90;;;0.68;;
22417;SDS011;11376;50.932;4.442;2023-10-19T15:05:33;1.83;;;0.57;;
22417;SDS011;11376;50.932;4.442;2023-10-19T15:08:03;3.40;;;0.60;;